Port Byron, New York
Current Conditions -  °F | °C
As of 10:54 AM on Friday 24 Oct 2014 (Local Time) from KFZY Reporting Station
Clear Clear  
Wind Chill: 55°   Ceiling: Unl
Heat Index: 55°   Visibility: 10mi
Dew Point: 44°   Wind: 14mph
Humidity: 67%   Direction: 290°WNW
Pressure: 29.94"   Gusts: NA
Location:  43.03°N, 76.62°W
Report Text: KFZY 241454Z AUTO 29012KT 10SM CLR 13/07 A2994 RMK AO2 SLP140 T01280067 50001
Loading
Personal Weather Stations






























Interactive Weather Map
Tropical Storm Tracking
New forecast layout! Learn more

10-Day Weather Forecast

Advertisements
Track Severe Weather on mobile